createdAt,value
2023-02-09T00:00:07.482Z,14.20
2023-02-09T00:02:35.112Z,15.88
2023-02-09T00:05:04.189Z,16.73
2023-02-09T00:07:31.789Z,24.03
2023-02-09T00:09:59.387Z,17.92
2023-02-09T00:12:44.745Z,14.18
2023-02-09T00:15:12.543Z,14.32
2023-02-09T00:17:40.119Z,14.35
2023-02-09T00:20:09.702Z,11.57
2023-02-09T00:22:37.250Z,19.65
2023-02-09T00:25:04.873Z,8.75
2023-02-09T00:27:35.547Z,14.43
2023-02-09T00:30:03.280Z,13.23
2023-02-09T00:32:33.064Z,11.17
2023-02-09T00:35:00.619Z,10.60
2023-02-09T00:37:29.604Z,17.95
2023-02-09T00:39:57.153Z,15.48
2023-02-09T00:42:24.708Z,11.90
2023-02-09T00:44:52.280Z,10.97
2023-02-09T00:47:19.841Z,14.73
2023-02-09T00:49:47.469Z,16.33
2023-02-09T00:52:15.093Z,20.15
2023-02-09T00:54:44.028Z,18.88
2023-02-09T00:57:12.126Z,13.87
2023-02-09T00:59:40.716Z,16.83
2023-02-09T01:02:08.489Z,17.98
2023-02-09T01:04:36.060Z,12.20
2023-02-09T01:07:03.662Z,15.02
2023-02-09T01:09:31.394Z,15.20
2023-02-09T01:12:00.344Z,15.70
2023-02-09T01:14:27.926Z,19.88
2023-02-09T01:16:55.510Z,16.05
2023-02-09T01:19:23.063Z,16.13
2023-02-09T01:21:50.682Z,13.47
2023-02-09T01:24:18.251Z,12.98
2023-02-09T01:26:45.856Z,23.65
2023-02-09T01:29:15.982Z,21.35
2023-02-09T01:31:44.236Z,20.98
2023-02-09T01:34:13.176Z,8.97
2023-02-09T01:36:40.800Z,16.15
2023-02-09T01:39:08.392Z,17.08
2023-02-09T01:41:36.017Z,17.15
2023-02-09T01:44:04.422Z,14.05
2023-02-09T01:46:33.844Z,19.37
2023-02-09T01:49:04.855Z,13.70
2023-02-09T01:51:34.100Z,12.20
2023-02-09T01:54:01.977Z,15.90
2023-02-09T01:56:30.601Z,25.15
2023-02-09T01:58:58.147Z,17.30
2023-02-09T02:01:25.881Z,13.38
2023-02-09T02:03:55.598Z,17.52
2023-02-09T02:06:23.208Z,24.77
2023-02-09T02:08:53.669Z,18.30
2023-02-09T02:11:22.298Z,17.87
2023-02-09T02:13:49.844Z,20.60
2023-02-09T02:16:24.846Z,14.48
2023-02-09T02:19:03.320Z,14.85
2023-02-09T02:21:49.534Z,15.90
2023-02-09T02:24:24.008Z,15.47
2023-02-09T02:26:54.663Z,15.55
2023-02-09T02:29:28.896Z,16.45
2023-02-09T02:32:13.632Z,19.90
2023-02-09T02:34:46.701Z,21.40
2023-02-09T02:37:25.156Z,14.13
2023-02-09T02:39:59.280Z,16.65
2023-02-09T02:42:50.125Z,21.73
2023-02-09T02:45:22.886Z,16.63
2023-02-09T02:47:56.013Z,21.60
2023-02-09T02:50:25.424Z,26.43
2023-02-09T02:52:54.778Z,18.77
2023-02-09T02:55:24.415Z,11.95
2023-02-09T02:57:54.681Z,19.27
2023-02-09T03:00:23.963Z,17.95
2023-02-09T03:02:54.452Z,21.10
2023-02-09T03:05:23.806Z,25.80
2023-02-09T03:07:51.742Z,20.20
2023-02-09T03:10:27.768Z,17.73
2023-02-09T03:13:01.635Z,15.73
2023-02-09T03:15:33.448Z,21.70
2023-02-09T03:18:05.926Z,19.70
2023-02-09T03:20:39.020Z,19.65
2023-02-09T03:23:08.759Z,19.58
2023-02-09T03:25:38.646Z,11.80
2023-02-09T03:28:07.952Z,18.67
2023-02-09T03:30:36.226Z,20.17
2023-02-09T03:33:06.121Z,20.92
2023-02-09T03:35:36.344Z,24.08
2023-02-09T03:38:06.669Z,26.10
2023-02-09T03:40:34.299Z,18.30
2023-02-09T03:43:01.857Z,11.00
2023-02-09T03:45:29.424Z,24.42
2023-02-09T03:47:56.976Z,15.63
2023-02-09T03:50:25.975Z,14.38
2023-02-09T03:52:54.028Z,11.00
2023-02-09T03:55:21.598Z,15.68
2023-02-09T03:57:49.126Z,13.63
2023-02-09T04:00:17.185Z,19.58
2023-02-09T04:02:45.147Z,20.92
2023-02-09T04:05:14.219Z,15.90
2023-02-09T04:07:43.313Z,14.77
2023-02-09T04:10:11.300Z,18.17
2023-02-09T04:12:38.875Z,22.23
2023-02-09T04:15:06.646Z,17.48
2023-02-09T04:17:34.159Z,21.77
2023-02-09T04:20:02.002Z,21.05
2023-02-09T04:22:29.597Z,17.50
2023-02-09T04:24:58.570Z,15.15
2023-02-09T04:27:27.153Z,18.77
2023-02-09T04:29:54.834Z,19.73
2023-02-09T04:32:22.406Z,22.30
2023-02-09T04:34:49.968Z,21.33
2023-02-09T04:37:17.511Z,18.13
2023-02-09T04:39:45.060Z,21.52
2023-02-09T04:42:13.981Z,17.83
2023-02-09T04:44:41.532Z,14.13
2023-02-09T04:47:09.099Z,16.55
2023-02-09T04:49:36.625Z,20.42
2023-02-09T04:52:04.290Z,15.25
2023-02-09T04:54:31.836Z,12.87
2023-02-09T04:57:13.274Z,20.48
2023-02-09T04:59:44.873Z,18.95
2023-02-09T05:02:12.467Z,14.40
2023-02-09T05:04:40.032Z,18.42
2023-02-09T05:07:07.654Z,20.87
2023-02-09T05:09:35.236Z,17.90
2023-02-09T05:12:02.923Z,15.82
2023-02-09T05:14:30.469Z,20.92
2023-02-09T05:16:59.618Z,16.75
2023-02-09T05:19:27.308Z,19.17
2023-02-09T05:21:54.892Z,14.70
2023-02-09T05:24:22.504Z,18.27
2023-02-09T05:26:50.159Z,19.48
2023-02-09T05:29:17.741Z,16.92
2023-02-09T05:31:45.478Z,21.27
2023-02-09T05:34:14.482Z,19.98
2023-02-09T05:36:42.218Z,15.55
2023-02-09T05:39:09.794Z,12.85
2023-02-09T05:41:54.702Z,12.65
2023-02-09T05:44:22.254Z,14.83
2023-02-09T05:46:49.841Z,12.60
2023-02-09T05:49:18.899Z,14.93
2023-02-09T05:51:46.443Z,14.52
2023-02-09T05:54:14.005Z,5.90
2023-02-09T05:56:41.859Z,11.63
2023-02-09T05:59:09.420Z,13.48
2023-02-09T06:01:37.063Z,18.55
2023-02-09T06:04:04.688Z,14.02
2023-02-09T06:06:33.656Z,13.43
2023-02-09T06:09:01.241Z,10.97
2023-02-09T06:11:28.816Z,17.25
2023-02-09T06:13:56.409Z,14.63
2023-02-09T06:16:24.045Z,12.02
2023-02-09T06:18:51.606Z,11.98
2023-02-09T06:21:19.197Z,21.97
2023-02-09T06:23:48.117Z,10.75
2023-02-09T06:26:16.713Z,13.90
2023-02-09T06:28:44.378Z,13.45
2023-02-09T06:31:12.380Z,11.88
2023-02-09T06:33:40.303Z,13.67
2023-02-09T06:36:08.758Z,13.00
2023-02-09T06:38:36.772Z,10.45
2023-02-09T06:41:05.825Z,9.63
2023-02-09T06:43:33.642Z,17.50
2023-02-09T06:46:05.897Z,12.00
2023-02-09T06:48:33.615Z,11.45
2023-02-09T06:51:01.407Z,11.60
2023-02-09T06:53:29.240Z,12.18
2023-02-09T06:56:00.553Z,8.50
2023-02-09T06:58:29.512Z,9.97
2023-02-09T07:00:57.036Z,10.88
2023-02-09T07:03:24.596Z,10.48
2023-02-09T07:05:52.167Z,10.88
2023-02-09T07:08:19.753Z,13.82
2023-02-09T07:10:47.507Z,9.50
2023-02-09T07:13:15.268Z,11.75
2023-02-09T07:15:44.253Z,7.78
2023-02-09T07:18:11.872Z,7.97
2023-02-09T07:20:39.419Z,7.53
2023-02-09T07:23:07.249Z,6.83
2023-02-09T07:25:35.620Z,10.00
2023-02-09T07:28:03.225Z,9.00
2023-02-09T07:30:30.849Z,7.63
2023-02-09T07:32:59.822Z,9.27
2023-02-09T07:35:27.434Z,8.90
2023-02-09T07:37:54.977Z,13.82
2023-02-09T07:40:22.781Z,8.50
2023-02-09T07:42:51.954Z,11.07
2023-02-09T07:45:19.521Z,9.23
2023-02-09T07:47:47.073Z,8.40
2023-02-09T07:50:15.781Z,8.80
2023-02-09T07:52:44.689Z,10.57
2023-02-09T07:55:12.273Z,9.35
2023-02-09T07:57:39.822Z,12.25
2023-02-09T08:00:07.776Z,10.93
2023-02-09T08:02:36.710Z,8.27
2023-02-09T08:05:06.155Z,10.43
2023-02-09T08:07:33.890Z,7.75
2023-02-09T08:10:02.828Z,10.70
2023-02-09T08:12:44.815Z,11.27
2023-02-09T08:15:12.696Z,11.02
2023-02-09T08:17:40.709Z,9.57
2023-02-09T08:20:12.823Z,8.57
2023-02-09T08:22:43.704Z,10.60
2023-02-09T08:25:12.783Z,11.37
2023-02-09T08:27:40.857Z,11.32
2023-02-09T08:30:08.836Z,12.07
2023-02-09T08:32:36.595Z,8.77
2023-02-09T08:35:04.253Z,11.20
2023-02-09T08:37:31.974Z,10.77
2023-02-09T08:39:59.545Z,10.65
2023-02-09T08:42:29.171Z,8.18
2023-02-09T08:44:56.705Z,8.48
2023-02-09T08:47:24.254Z,11.88
2023-02-09T08:49:51.851Z,9.27
2023-02-09T08:52:19.914Z,10.35
2023-02-09T08:54:47.481Z,8.75
2023-02-09T08:57:15.063Z,9.27
2023-02-09T08:59:44.038Z,10.85
2023-02-09T09:02:11.620Z,9.77
2023-02-09T09:04:39.203Z,25.83
2023-02-09T09:07:06.776Z,11.75
2023-02-09T09:09:34.439Z,9.95
2023-02-09T09:12:01.982Z,9.80
2023-02-09T09:14:30.057Z,9.67
2023-02-09T09:16:59.639Z,11.00
2023-02-09T09:19:28.544Z,14.63
2023-02-09T09:21:56.178Z,10.30
2023-02-09T09:24:28.086Z,11.13
2023-02-09T09:26:56.122Z,10.30
2023-02-09T09:29:24.002Z,7.85
2023-02-09T09:31:51.619Z,10.43
2023-02-09T09:34:20.926Z,7.80
2023-02-09T09:36:48.488Z,10.65
2023-02-09T09:39:16.084Z,9.87
2023-02-09T09:41:46.490Z,10.25
2023-02-09T09:44:16.220Z,8.43
2023-02-09T09:46:45.358Z,11.85
2023-02-09T09:49:19.842Z,14.88
2023-02-09T09:51:51.038Z,13.00
2023-02-09T09:54:20.720Z,8.82
2023-02-09T09:56:48.334Z,10.73
2023-02-09T09:59:17.645Z,7.60
2023-02-09T10:01:45.453Z,10.57
2023-02-09T10:04:14.452Z,12.63
2023-02-09T10:06:43.651Z,10.90
2023-02-09T10:09:21.990Z,10.80
2023-02-09T10:11:52.376Z,10.45
2023-02-09T10:14:21.768Z,13.18
2023-02-09T10:16:50.442Z,10.27
2023-02-09T10:19:19.773Z,15.32
2023-02-09T10:21:48.837Z,10.18
2023-02-09T10:24:22.125Z,9.43
2023-02-09T10:27:02.683Z,11.88
2023-02-09T10:29:30.275Z,9.33
2023-02-09T10:32:00.909Z,10.65
2023-02-09T10:34:31.919Z,12.50
2023-02-09T10:37:13.436Z,9.98
2023-02-09T10:39:42.814Z,12.65
2023-02-09T10:42:18.822Z,12.30
2023-02-09T10:44:48.816Z,14.05
2023-02-09T10:47:27.218Z,18.92
2023-02-09T10:49:56.000Z,11.65
2023-02-09T10:52:24.682Z,12.70
2023-02-09T10:54:56.408Z,12.40
2023-02-09T10:57:25.996Z,10.63
2023-02-09T10:59:54.164Z,13.65
2023-02-09T11:02:30.444Z,12.80
2023-02-09T11:04:58.011Z,15.35
2023-02-09T11:07:30.645Z,10.80
2023-02-09T11:10:01.254Z,14.30
2023-02-09T11:12:29.244Z,18.27
2023-02-09T11:14:56.841Z,13.88
2023-02-09T11:17:25.444Z,11.20
2023-02-09T11:20:03.312Z,14.47
2023-02-09T11:22:43.417Z,11.18
2023-02-09T11:25:18.643Z,12.02
2023-02-09T11:27:59.093Z,15.07
2023-02-09T11:30:32.059Z,13.60
2023-02-09T11:33:04.217Z,13.17
2023-02-09T11:35:41.542Z,16.30
2023-02-09T11:38:13.560Z,18.10
2023-02-09T11:40:43.335Z,13.82
2023-02-09T11:43:16.795Z,11.80
2023-02-09T11:45:45.164Z,14.43
2023-02-09T11:48:13.881Z,12.88
2023-02-09T11:50:45.220Z,14.95
2023-02-09T11:53:17.480Z,14.90
2023-02-09T11:55:48.412Z,17.98
2023-02-09T11:58:39.943Z,22.03
2023-02-09T12:01:15.699Z,12.65
2023-02-09T12:03:44.949Z,11.13
2023-02-09T12:06:12.795Z,10.95
2023-02-09T12:08:55.223Z,14.60
2023-02-09T12:11:34.257Z,13.37
2023-02-09T12:14:23.254Z,12.68
2023-02-09T12:16:54.794Z,14.57
2023-02-09T12:19:25.649Z,16.17
2023-02-09T12:21:53.216Z,15.23
2023-02-09T12:24:34.659Z,16.73
2023-02-09T12:27:03.637Z,15.00
2023-02-09T12:29:36.054Z,11.15
2023-02-09T12:32:14.156Z,18.35
2023-02-09T12:34:42.537Z,13.43
2023-02-09T12:37:27.461Z,17.70
2023-02-09T12:40:14.838Z,17.92
2023-02-09T12:42:44.870Z,13.07
2023-02-09T12:45:27.286Z,16.00
2023-02-09T12:47:58.730Z,19.80
2023-02-09T12:50:34.709Z,10.57
2023-02-09T12:53:20.886Z,16.45
2023-02-09T12:55:58.681Z,21.83
2023-02-09T12:58:40.604Z,15.65
2023-02-09T13:01:08.265Z,20.42
2023-02-09T13:03:42.414Z,20.87
2023-02-09T13:06:22.842Z,12.65
2023-02-09T13:08:53.429Z,16.23
2023-02-09T13:11:24.651Z,13.50
2023-02-09T13:13:55.786Z,13.50
2023-02-09T13:16:39.806Z,16.07
2023-02-09T13:19:17.076Z,15.63
2023-02-09T13:21:48.292Z,14.05
2023-02-09T13:24:17.050Z,18.30
2023-02-09T13:26:50.014Z,15.73
2023-02-09T13:32:21.837Z,18.55
2023-02-09T13:34:54.506Z,19.75
2023-02-09T13:37:25.337Z,16.58
2023-02-09T13:39:58.059Z,18.73
2023-02-09T13:42:26.874Z,18.67
2023-02-09T13:44:55.656Z,16.70
2023-02-09T13:47:24.616Z,18.23
2023-02-09T13:49:59.936Z,15.48
2023-02-09T13:52:28.194Z,21.45
2023-02-09T13:54:55.761Z,20.70
2023-02-09T13:57:33.018Z,15.55
2023-02-09T14:00:04.504Z,19.65
2023-02-09T14:02:35.779Z,23.30
2023-02-09T14:05:04.887Z,23.02
2023-02-09T14:07:34.385Z,22.23
2023-02-09T14:10:03.705Z,19.02
2023-02-09T14:12:55.823Z,21.25
2023-02-09T14:15:43.433Z,25.95
2023-02-09T14:18:29.079Z,24.48
2023-02-09T14:21:00.204Z,22.73
2023-02-09T14:23:32.734Z,25.23
2023-02-09T14:26:04.181Z,20.45
2023-02-09T14:28:31.795Z,17.85
2023-02-09T14:31:00.021Z,20.88
2023-02-09T14:33:29.440Z,27.53
2023-02-09T14:35:59.266Z,21.88
2023-02-09T14:38:37.484Z,27.80
2023-02-09T14:41:18.809Z,23.05
2023-02-09T14:43:46.364Z,26.10
2023-02-09T14:46:13.975Z,23.47
2023-02-09T14:48:42.909Z,24.23
2023-02-09T14:51:14.638Z,20.65
2023-02-09T14:53:43.419Z,24.27
2023-02-09T14:56:14.849Z,25.23
2023-02-09T14:58:42.387Z,22.00
2023-02-09T15:01:10.519Z,21.42
2023-02-09T15:03:38.098Z,24.17
2023-02-09T15:06:07.293Z,25.30
2023-02-09T15:08:35.900Z,26.05
2023-02-09T15:11:25.144Z,23.27
2023-02-09T15:13:54.488Z,29.40
2023-02-09T15:16:22.159Z,28.63
2023-02-09T15:18:49.796Z,24.48
2023-02-09T15:21:18.714Z,23.48
2023-02-09T15:23:46.282Z,20.13
2023-02-09T15:26:16.226Z,20.77
2023-02-09T15:28:43.906Z,26.88
2023-02-09T15:31:14.996Z,20.17
2023-02-09T15:33:43.593Z,20.20
2023-02-09T15:36:12.966Z,21.43
2023-02-09T15:38:41.927Z,27.45
2023-02-09T15:41:27.365Z,18.33
2023-02-09T15:44:12.231Z,22.50
2023-02-09T15:46:57.013Z,22.70
2023-02-09T15:49:24.563Z,16.57
2023-02-09T15:51:52.151Z,17.50
2023-02-09T15:54:21.887Z,21.40
2023-02-09T15:56:49.471Z,16.60
2023-02-09T15:59:18.835Z,20.00
2023-02-09T16:01:46.680Z,17.30
2023-02-09T16:04:14.903Z,19.30
2023-02-09T16:06:43.624Z,19.80
2023-02-09T16:09:11.631Z,17.73
2023-02-09T16:11:41.230Z,15.48
2023-02-09T16:14:14.773Z,15.87
2023-02-09T16:16:43.735Z,13.90
2023-02-09T16:21:54.331Z,14.27
2023-02-09T16:24:24.265Z,14.43
2023-02-09T16:26:53.195Z,22.57
2023-02-09T16:29:20.785Z,20.50
2023-02-09T16:31:48.732Z,21.27
2023-02-09T16:34:16.351Z,21.42
2023-02-09T16:36:43.982Z,15.93
2023-02-09T16:39:16.184Z,16.07
2023-02-09T16:41:50.602Z,11.95
2023-02-09T16:44:21.179Z,16.48
2023-02-09T16:46:50.037Z,23.08
2023-02-09T16:49:31.344Z,11.70
2023-02-09T16:51:59.393Z,15.33
2023-02-09T16:54:26.981Z,17.80
2023-02-09T16:56:54.910Z,18.98
2023-02-09T16:59:23.940Z,18.92
2023-02-09T17:01:51.834Z,12.85
2023-02-09T17:04:19.447Z,19.53
2023-02-09T17:06:49.040Z,12.73
2023-02-09T17:09:16.731Z,14.15
2023-02-09T17:11:44.308Z,19.00
2023-02-09T17:14:12.459Z,12.85
2023-02-09T17:16:43.403Z,14.83
2023-02-09T17:19:14.260Z,17.23
2023-02-09T17:21:42.272Z,14.63
2023-02-09T17:24:14.487Z,16.03
2023-02-09T17:26:42.206Z,21.35
2023-02-09T17:29:09.868Z,15.45
2023-02-09T17:31:52.446Z,20.20
2023-02-09T17:34:27.080Z,11.15
2023-02-09T17:36:54.753Z,14.00
2023-02-09T17:39:22.319Z,20.08
2023-02-09T17:41:50.093Z,12.50
2023-02-09T17:44:35.437Z,12.85
2023-02-09T17:47:07.147Z,13.60
2023-02-09T17:49:36.128Z,14.33
2023-02-09T17:52:03.777Z,13.10
2023-02-09T17:54:32.522Z,16.85
2023-02-09T17:57:00.085Z,14.32
2023-02-09T17:59:27.703Z,15.50
2023-02-09T18:01:56.244Z,13.73
2023-02-09T18:04:26.847Z,12.90
2023-02-09T18:06:57.730Z,14.65
2023-02-09T18:09:25.543Z,12.27
2023-02-09T18:11:57.642Z,19.60
2023-02-09T18:14:26.127Z,14.40
2023-02-09T18:16:55.136Z,11.27
2023-02-09T18:19:23.341Z,14.65
2023-02-09T18:21:52.361Z,11.93
2023-02-09T18:24:22.218Z,12.13
2023-02-09T18:26:50.994Z,10.57
2023-02-09T18:29:18.992Z,9.70
2023-02-09T18:31:47.278Z,14.00
2023-02-09T18:34:15.024Z,10.70
2023-02-09T18:36:42.890Z,12.98
2023-02-09T18:39:10.447Z,10.13
2023-02-09T18:41:39.667Z,13.57
2023-02-09T18:44:07.204Z,8.05
2023-02-09T18:46:34.773Z,10.55
2023-02-09T18:49:03.628Z,9.32
2023-02-09T18:51:32.472Z,13.03
2023-02-09T18:54:00.265Z,11.48
2023-02-09T18:56:28.408Z,9.82
2023-02-09T18:58:57.437Z,10.05
2023-02-09T19:01:25.462Z,8.40
2023-02-09T19:03:53.230Z,8.93
2023-02-09T19:06:21.539Z,10.38
2023-02-09T19:08:50.331Z,7.90
2023-02-09T19:11:19.222Z,10.32
2023-02-09T19:14:07.585Z,5.63
2023-02-09T19:16:37.680Z,11.17
2023-02-09T19:19:05.268Z,7.95
2023-02-09T19:21:32.899Z,9.93
2023-02-09T19:24:00.502Z,10.02
2023-02-09T19:26:28.109Z,12.68
2023-02-09T19:28:56.961Z,10.23
2023-02-09T19:31:24.746Z,11.10
2023-02-09T19:33:56.933Z,11.20
2023-02-09T19:36:27.633Z,7.70
2023-02-09T19:38:55.272Z,4.95
2023-02-09T19:41:23.580Z,10.43
2023-02-09T19:43:55.129Z,10.07
2023-02-09T19:46:22.706Z,9.02
2023-02-09T19:48:50.409Z,6.97
2023-02-09T19:51:19.337Z,16.23
2023-02-09T19:53:46.847Z,8.00
2023-02-09T19:56:15.813Z,10.88
2023-02-09T19:58:43.431Z,10.73
2023-02-09T20:01:11.085Z,6.45
2023-02-09T20:03:38.902Z,6.05
2023-02-09T20:06:07.587Z,8.90
2023-02-09T20:08:37.155Z,9.00
2023-02-09T20:11:05.893Z,13.73
2023-02-09T20:13:33.504Z,6.93
2023-02-09T20:16:01.176Z,11.05
2023-02-09T20:18:29.013Z,9.97
2023-02-09T20:20:58.351Z,6.63
2023-02-09T20:23:25.927Z,6.90
2023-02-09T20:25:54.992Z,11.88
2023-02-09T20:28:22.829Z,10.88
2023-02-09T20:30:50.573Z,7.73
2023-02-09T20:33:18.152Z,11.57
2023-02-09T20:35:46.564Z,9.73
2023-02-09T20:38:14.624Z,10.88
2023-02-09T20:40:42.474Z,6.60
2023-02-09T20:43:30.787Z,9.83
2023-02-09T20:46:16.190Z,7.72
2023-02-09T20:48:43.828Z,7.53
2023-02-09T20:51:11.378Z,12.40
2023-02-09T20:53:38.960Z,7.57
2023-02-09T20:56:06.869Z,6.47
2023-02-09T20:58:37.689Z,10.15
2023-02-09T21:01:05.956Z,9.90
2023-02-09T21:03:33.552Z,13.93
2023-02-09T21:06:01.153Z,9.27
2023-02-09T21:08:28.808Z,7.93
2023-02-09T21:10:56.708Z,9.60
2023-02-09T21:13:24.342Z,12.38
2023-02-09T21:15:53.284Z,10.35
2023-02-09T21:18:21.847Z,7.70
2023-02-09T21:20:49.924Z,13.30
2023-02-09T21:23:17.928Z,9.25
2023-02-09T21:25:46.671Z,9.02
2023-02-09T21:28:15.138Z,12.38
2023-02-09T21:30:43.317Z,5.45
2023-02-09T21:33:12.220Z,9.17
2023-02-09T21:35:40.162Z,9.98
2023-02-09T21:38:07.860Z,11.80
2023-02-09T21:40:35.459Z,7.03
2023-02-09T21:43:02.987Z,8.73
2023-02-09T21:45:30.827Z,8.80
2023-02-09T21:47:59.650Z,10.63
2023-02-09T21:50:28.559Z,13.48
2023-02-09T21:52:56.158Z,6.68
2023-02-09T21:55:23.736Z,9.73
2023-02-09T21:57:51.312Z,9.37
2023-02-09T22:00:19.132Z,8.45
2023-02-09T22:02:46.716Z,13.23
2023-02-09T22:05:14.342Z,10.43
2023-02-09T22:07:45.575Z,13.75
2023-02-09T22:10:13.169Z,6.37
2023-02-09T22:12:40.754Z,12.63
2023-02-09T22:15:08.667Z,10.85
2023-02-09T22:17:37.192Z,10.95
2023-02-09T22:20:05.016Z,8.75
2023-02-09T22:22:32.623Z,9.77
2023-02-09T22:25:01.519Z,9.45
2023-02-09T22:27:29.069Z,14.63
2023-02-09T22:29:56.656Z,8.57
2023-02-09T22:32:24.459Z,11.32
2023-02-09T22:34:52.006Z,14.17
2023-02-09T22:37:19.560Z,10.85
2023-02-09T22:39:48.153Z,9.38
2023-02-09T22:42:17.047Z,10.13
2023-02-09T22:44:44.595Z,6.53
2023-02-09T22:47:12.181Z,10.20
2023-02-09T22:49:39.780Z,10.77
2023-02-09T22:52:07.316Z,12.10
2023-02-09T22:54:34.958Z,7.63
2023-02-09T22:57:02.662Z,9.57
2023-02-09T22:59:31.826Z,10.33
2023-02-09T23:01:59.387Z,10.98
2023-02-09T23:04:26.950Z,11.30
2023-02-09T23:06:54.538Z,6.72
2023-02-09T23:09:22.074Z,11.88
2023-02-09T23:11:49.652Z,9.47
2023-02-09T23:14:17.349Z,10.77
2023-02-09T23:16:46.755Z,9.73
2023-02-09T23:19:16.442Z,11.68
2023-02-09T23:21:45.356Z,6.85
2023-02-09T23:24:13.935Z,13.80
2023-02-09T23:26:41.602Z,10.00
2023-02-09T23:29:10.364Z,9.13
2023-02-09T23:31:38.694Z,10.13
2023-02-09T23:34:07.633Z,6.93
2023-02-09T23:36:35.765Z,12.50
2023-02-09T23:39:04.547Z,9.68
2023-02-09T23:41:32.161Z,7.97
2023-02-09T23:43:59.988Z,10.77
2023-02-09T23:46:28.946Z,10.60
2023-02-09T23:48:56.719Z,13.23
2023-02-09T23:51:26.737Z,10.23
2023-02-09T23:53:54.825Z,7.43
2023-02-09T23:56:22.896Z,10.98
2023-02-09T23:58:51.866Z,11.85
